Time;durP1;ratioP1;P1;durP2;ratioP2;P2;SDS_P1;SDS_P2;PMS_P1;PMS_P2;Temp;Humidity;BMP_temperature;BMP_pressure;BME280_temperature;BME280_humidity;BME280_pressure;Samples;Min_cycle;Max_cycle;Signal;HPM_P1;HPM_P2
2021/06/30 00:01:11;;;;;;;8.10;6.03;;;15.10;99.90;;;15.06;100.00;101324.03;4135388;28;20030;-67
2021/06/30 00:03:12;;;;;;;8.25;4.95;;;15.20;99.90;;;15.09;100.00;101321.03;4135309;28;20034;-67
2021/06/30 00:05:13;;;;;;;7.57;5.25;;;15.30;99.90;;;15.18;100.00;101327.13;4135348;28;20046;-67
2021/06/30 00:07:14;;;;;;;9.98;6.38;;;15.40;99.90;;;15.28;100.00;101311.84;4135077;28;20118;-67
2021/06/30 00:09:16;;;;;;;6.38;4.85;;;15.40;99.90;;;15.32;99.97;101321.13;4150178;28;20063;-67
2021/06/30 00:11:17;;;;;;;8.43;5.53;;;15.50;99.90;;;15.32;99.72;101319.28;4135353;28;20486;-67
2021/06/30 00:13:18;;;;;;;10.73;7.13;;;15.50;99.90;;;15.16;100.00;101311.38;4135157;28;20153;-67
2021/06/30 00:15:26;;;;;;;10.23;6.90;;;15.50;99.90;;;15.26;100.00;101306.66;4134856;28;20026;-67
2021/06/30 00:17:27;;;;;;;10.60;6.38;;;15.50;99.90;;;15.22;100.00;101320.50;4135217;28;20037;-68
2021/06/30 00:19:29;;;;;;;13.55;8.23;;;15.60;99.90;;;15.08;100.00;101310.59;4135128;28;20031;-68
2021/06/30 00:21:30;;;;;;;9.75;6.32;;;15.50;99.90;;;15.11;100.00;101302.28;4133945;28;20029;-67
2021/06/30 00:23:31;;;;;;;8.25;5.35;;;15.50;99.90;;;15.14;100.00;101320.53;4134939;28;20026;-68
2021/06/30 00:25:32;;;;;;;10.80;6.18;;;15.50;99.90;;;15.15;100.00;101328.31;4134850;28;20402;-67
2021/06/30 00:27:33;;;;;;;13.98;7.25;;;15.50;99.90;;;15.13;100.00;101313.56;4134158;28;20030;-67
2021/06/30 00:29:34;;;;;;;10.57;6.38;;;15.40;99.90;;;15.19;100.00;101319.00;4134716;28;20026;-67
2021/06/30 00:31:35;;;;;;;11.30;6.05;;;15.40;99.90;;;15.23;100.00;101324.81;4134941;28;20090;-67
2021/06/30 00:33:36;;;;;;;9.43;6.05;;;15.50;99.90;;;15.22;100.00;101305.38;4135100;28;20022;-67
2021/06/30 00:35:37;;;;;;;10.98;6.43;;;15.50;99.90;;;15.27;100.00;101315.47;4133832;28;20444;-67
2021/06/30 00:37:39;;;;;;;11.55;6.03;;;15.50;99.90;;;15.18;100.00;101320.00;4134955;28;20037;-67
2021/06/30 00:39:40;;;;;;;11.75;6.30;;;15.50;99.90;;;15.12;100.00;101320.69;4134848;28;20134;-67
2021/06/30 00:41:41;;;;;;;9.95;6.40;;;15.40;99.90;;;15.14;100.00;101317.88;4093819;28;1197277;-67
2021/06/30 00:43:43;;;;;;;12.10;6.95;;;15.40;99.90;;;15.11;100.00;101319.06;4150338;28;20026;-67
2021/06/30 00:45:44;;;;;;;11.75;7.97;;;15.40;99.90;;;15.05;100.00;101316.25;4135606;28;20474;-67
2021/06/30 00:47:45;;;;;;;12.48;5.57;;;15.40;99.90;;;15.01;100.00;101321.06;4135392;28;20026;-67
2021/06/30 00:49:46;;;;;;;10.20;5.90;;;15.30;99.90;;;14.95;100.00;101319.91;4135484;28;20030;-67
2021/06/30 00:51:47;;;;;;;16.80;8.43;;;15.20;99.90;;;15.06;100.00;101318.72;4135484;28;20046;-67
2021/06/30 00:53:48;;;;;;;13.52;7.57;;;15.30;99.90;;;15.14;100.00;101323.19;4135456;28;20277;-67
2021/06/30 00:55:51;;;;;;;11.63;6.60;;;15.40;99.90;;;14.99;100.00;101322.25;4135344;28;20050;-67
2021/06/30 00:57:52;;;;;;;17.57;6.77;;;15.30;99.90;;;14.76;100.00;101290.22;4135615;28;20429;-67
2021/06/30 00:59:55;;;;;;;11.10;7.45;;;15.20;99.90;;;14.92;100.00;101312.28;4134062;28;20115;-67
2021/06/30 01:01:56;;;;;;;15.00;8.02;;;15.30;99.90;;;14.92;100.00;101317.59;4150474;28;20034;-67
2021/06/30 01:03:57;;;;;;;15.63;7.80;;;15.20;99.90;;;14.81;100.00;101314.47;4135191;28;20062;-67
2021/06/30 01:05:58;;;;;;;12.90;7.13;;;15.20;99.90;;;14.72;100.00;101328.78;4135465;28;20069;-67
2021/06/30 01:07:59;;;;;;;11.73;7.40;;;15.10;99.90;;;14.69;100.00;101321.97;4135425;28;20035;-67
2021/06/30 01:10:00;;;;;;;13.75;7.28;;;15.00;99.90;;;14.68;100.00;101330.94;4135301;28;20038;-67
2021/06/30 01:12:01;;;;;;;10.82;6.60;;;15.00;99.90;;;14.54;100.00;101320.16;4135214;28;20030;-67
2021/06/30 01:14:02;;;;;;;14.88;8.02;;;15.00;99.90;;;14.65;100.00;101330.44;4135172;28;20030;-67
2021/06/30 01:16:04;;;;;;;13.35;7.68;;;15.00;99.90;;;14.63;100.00;101327.97;4135399;28;20038;-67
2021/06/30 01:18:05;;;;;;;13.20;7.28;;;15.00;99.90;;;14.68;100.00;101324.78;4135402;28;20023;-67
2021/06/30 01:20:07;;;;;;;12.50;7.97;;;15.00;99.90;;;14.73;100.00;101327.75;4135114;28;20053;-67
2021/06/30 01:22:08;;;;;;;9.52;6.35;;;15.10;99.90;;;14.72;100.00;101321.63;4135301;28;20033;-67
2021/06/30 01:24:09;;;;;;;9.75;6.20;;;15.10;99.90;;;14.77;100.00;101319.28;4135237;28;20030;-67
2021/06/30 01:26:12;;;;;;;10.90;5.80;;;15.10;99.90;;;14.80;100.00;101312.81;4135189;28;20026;-67
2021/06/30 01:28:15;;;;;;;13.45;8.52;;;15.20;99.90;;;14.94;100.00;101328.03;4133880;28;20049;-67
2021/06/30 01:30:17;;;;;;;13.27;7.38;;;15.20;99.90;;;14.95;100.00;101319.91;4135040;28;20483;-67
2021/06/30 01:32:18;;;;;;;12.80;7.53;;;15.30;99.90;;;15.00;100.00;101313.25;4135231;28;20026;-67
2021/06/30 01:34:20;;;;;;;11.88;7.32;;;15.30;99.90;;;15.03;100.00;101315.56;4135144;28;20157;-67
2021/06/30 01:36:21;;;;;;;11.52;6.43;;;15.30;99.90;;;15.03;100.00;101323.53;4133685;28;20125;-67
2021/06/30 01:38:25;;;;;;;12.30;8.02;;;15.30;99.90;;;15.18;100.00;101317.34;4136740;28;20034;-67
2021/06/30 01:40:27;;;;;;;;;;;15.40;99.90;;;15.18;100.00;101311.19;4137398;28;20034;-67
2021/06/30 01:42:28;;;;;;;13.25;7.93;;;15.50;99.90;;;15.24;100.00;101316.66;4136606;28;19940;-67
2021/06/30 01:44:29;;;;;;;13.27;8.07;;;15.50;99.90;;;15.19;100.00;101318.19;4137692;28;20022;-67
2021/06/30 01:46:30;;;;;;;13.48;8.18;;;15.60;99.90;;;15.22;100.00;101323.97;4136898;28;20037;-67
2021/06/30 01:48:31;;;;;;;15.93;9.07;;;15.50;99.90;;;15.25;100.00;101326.31;4137988;28;20034;-67
2021/06/30 01:50:32;;;;;;;13.02;7.97;;;15.50;99.90;;;15.08;100.00;101303.44;4136692;28;20034;-67
2021/06/30 01:52:33;;;;;;;15.05;7.78;;;15.50;99.90;;;15.13;100.00;101314.38;4137790;28;20393;-67
2021/06/30 01:54:34;;;;;;;14.20;7.65;;;15.50;99.90;;;15.13;100.00;101313.56;4136748;28;20062;-67
2021/06/30 01:56:35;;;;;;;12.63;7.55;;;15.50;99.90;;;15.18;100.00;101305.88;4152922;28;20030;-67
2021/06/30 01:58:36;;;;;;;11.80;7.28;;;15.50;99.90;;;15.15;100.00;101312.38;4137786;28;20029;-67
2021/06/30 02:00:38;;;;;;;13.25;7.68;;;15.50;99.90;;;15.20;100.00;101303.91;4137498;28;20026;-67
2021/06/30 02:02:39;;;;;;;13.73;7.78;;;15.50;99.90;;;15.13;100.00;101311.72;4136586;28;20026;-67
2021/06/30 02:04:41;;;;;;;15.13;9.23;;;15.50;99.90;;;15.15;100.00;101312.38;4136653;28;20462;-67
2021/06/30 02:06:44;;;;;;;12.68;6.72;;;15.40;99.90;;;15.12;100.00;101314.53;4137747;28;20037;-67
2021/06/30 02:08:45;;;;;;;15.05;8.68;;;15.50;99.90;;;15.06;100.00;101312.56;4137535;28;20050;-67
2021/06/30 02:10:46;;;;;;;13.75;7.78;;;15.40;99.90;;;15.08;100.00;101311.41;4137830;28;20027;-67
2021/06/30 02:12:47;;;;;;;10.93;6.72;;;15.40;99.90;;;15.10;100.00;101312.06;4137643;28;20490;-67
2021/06/30 02:14:48;;;;;;;12.25;8.50;;;15.40;99.90;;;15.17;100.00;101312.22;4137376;28;20033;-67
2021/06/30 02:16:49;;;;;;;11.48;7.53;;;15.50;99.90;;;15.17;100.00;101317.53;4137671;28;20137;-67
2021/06/30 02:18:50;;;;;;;14.50;6.72;;;15.40;99.90;;;15.03;100.00;101304.94;4137587;28;20084;-67
2021/06/30 02:20:51;;;;;;;13.38;7.53;;;15.40;99.90;;;15.00;100.00;101310.59;4136320;28;20026;-67
2021/06/30 02:22:55;;;;;;;14.20;7.90;;;15.40;99.90;;;15.05;100.00;101313.59;4137458;28;20034;-67
2021/06/30 02:24:58;;;;;;;13.02;8.32;;;15.40;99.90;;;14.99;100.00;101320.41;4136177;28;20030;-67
2021/06/30 02:26:59;;;;;;;11.98;8.10;;;15.40;99.90;;;15.00;100.00;101321.22;4136264;28;20084;-67
2021/06/30 02:29:00;;;;;;;12.93;9.00;;;15.40;99.90;;;15.10;100.00;101317.38;4137131;28;20038;-67
2021/06/30 02:31:03;;;;;;;13.93;7.43;;;15.40;99.90;;;15.12;100.00;101314.53;4137292;28;20042;-67
2021/06/30 02:33:05;;;;;;;13.30;8.57;;;15.50;99.90;;;15.09;100.00;101322.84;4136039;28;20041;-67
2021/06/30 02:35:11;;;;;;;10.75;7.45;;;15.50;99.90;;;15.03;100.00;101316.41;4137462;28;20061;-67
2021/06/30 02:37:12;;;;;;;12.63;6.82;;;15.40;99.90;;;15.00;100.00;101324.72;4137378;28;20506;-67
2021/06/30 02:39:13;;;;;;;12.07;6.72;;;15.40;99.90;;;14.99;100.00;101319.59;4137163;28;20035;-67
2021/06/30 02:41:14;;;;;;;13.07;8.10;;;15.40;99.90;;;15.20;100.00;101323.31;4136942;28;20133;-67
2021/06/30 02:43:15;;;;;;;14.52;8.73;;;15.40;99.90;;;15.18;100.00;101327.13;4137218;28;20038;-67
2021/06/30 02:45:19;;;;;;;14.43;8.25;;;15.40;99.90;;;15.15;100.00;101316.84;4137003;28;20037;-67
2021/06/30 02:47:20;;;;;;;12.80;7.73;;;15.50;99.90;;;15.16;100.00;101329.16;4135929;28;20026;-67
2021/06/30 02:49:20;;;;;;;13.85;8.90;;;15.50;99.90;;;15.19;100.00;101336.78;4136280;28;20380;-67
2021/06/30 02:51:21;;;;;;;13.88;8.65;;;15.50;99.90;;;15.12;100.00;101333.97;4137148;28;20073;-67
2021/06/30 02:53:22;;;;;;;12.13;7.65;;;15.50;99.90;;;15.14;100.00;101339.94;4135988;28;20065;-67
2021/06/30 02:55:23;;;;;;;10.50;7.25;;;15.50;99.90;;;15.05;100.00;101341.00;4137115;28;20026;-67
2021/06/30 02:57:24;;;;;;;11.52;7.57;;;15.50;99.90;;;15.09;100.00;101334.31;4137073;28;20057;-67
2021/06/30 02:59:26;;;;;;;12.18;7.30;;;15.40;99.90;;;14.96;100.00;101328.72;4136836;28;20026;-67
2021/06/30 03:01:26;;;;;;;11.38;7.47;;;15.40;99.90;;;14.90;100.00;101324.09;4136989;28;20088;-67
2021/06/30 03:03:27;;;;;;;11.80;8.20;;;15.30;99.90;;;14.89;100.00;101322.41;4135797;28;20082;-67
2021/06/30 03:05:28;;;;;;;11.68;8.35;;;15.20;99.90;;;14.83;100.00;101325.75;4136843;28;20065;-67
2021/06/30 03:07:29;;;;;;;12.32;7.57;;;15.20;99.90;;;14.76;100.00;101322.09;4136933;28;20068;-67
2021/06/30 03:09:30;;;;;;;16.98;8.07;;;15.10;99.90;;;14.67;100.00;101323.13;4151842;28;20513;-67
2021/06/30 03:11:31;;;;;;;12.23;7.45;;;15.00;99.90;;;14.53;100.00;101308.72;4136804;28;20027;-67
2021/06/30 03:13:32;;;;;;;13.10;8.65;;;14.90;99.90;;;14.44;100.00;101311.53;4136657;28;20038;-67
2021/06/30 03:15:32;;;;;;;12.88;8.55;;;14.90;99.90;;;14.47;100.00;101324.47;4135453;28;20031;-67
2021/06/30 03:17:35;;;;;;;15.38;8.55;;;14.80;99.90;;;14.36;100.00;101315.03;4136746;28;20084;-67
2021/06/30 03:19:35;;;;;;;13.50;9.05;;;14.70;99.90;;;14.36;100.00;101321.19;4135494;28;20101;-67
2021/06/30 03:21:37;;;;;;;14.65;8.52;;;14.70;99.90;;;14.41;100.00;101325.97;4136655;28;20037;-67
2021/06/30 03:23:38;;;;;;;14.82;8.70;;;14.70;99.90;;;14.36;100.00;101326.50;4136641;28;20025;-67
2021/06/30 03:25:39;;;;;;;15.68;8.27;;;14.60;99.90;;;14.36;100.00;101329.13;4136796;28;20053;-67
2021/06/30 03:27:41;;;;;;;14.38;8.25;;;14.70;99.90;;;14.39;100.00;101334.09;4136545;28;20037;-67
2021/06/30 03:29:42;;;;;;;11.82;7.57;;;14.70;99.90;;;14.37;100.00;101335.25;4136155;28;20038;-67
2021/06/30 03:31:43;;;;;;;12.30;7.47;;;14.70;99.90;;;14.34;100.00;101339.06;4136748;28;20041;-67
2021/06/30 03:33:44;;;;;;;13.63;7.38;;;14.60;99.90;;;14.36;100.00;101334.44;4136593;28;20031;-67
2021/06/30 03:35:45;;;;;;;12.13;7.80;;;14.70;99.90;;;14.38;100.00;101334.25;4136467;28;20023;-67
2021/06/30 03:37:46;;;;;;;15.88;6.97;;;14.70;99.90;;;14.42;100.00;101338.25;4136318;28;20022;-67
2021/06/30 03:39:47;;;;;;;13.20;7.80;;;14.80;99.90;;;14.31;100.00;101317.31;4135234;28;20161;-67
2021/06/30 03:41:48;;;;;;;12.55;6.95;;;14.70;99.90;;;14.42;100.00;101335.59;4136239;28;20041;-67
2021/06/30 03:43:49;;;;;;;10.82;6.20;;;14.70;99.90;;;14.44;100.00;101333.59;4134819;28;20053;-67
2021/06/30 03:45:50;;;;;;;12.15;6.82;;;14.80;99.90;;;14.42;100.00;101330.28;4167718;28;20064;-67
2021/06/30 03:47:51;;;;;;;13.90;7.18;;;14.80;99.90;;;14.35;100.00;101330.13;4167488;28;20522;-67
2021/06/30 03:49:52;;;;;;;15.10;8.23;;;14.70;99.90;;;14.44;100.00;101343.38;4136280;28;20022;-67
2021/06/30 03:51:52;;;;;;;13.10;7.32;;;14.70;99.90;;;14.47;100.00;101335.94;4136275;28;20027;-67
2021/06/30 03:53:53;;;;;;;19.60;7.82;;;14.80;99.90;;;14.51;100.00;101337.25;4136174;28;20113;-67
2021/06/30 03:55:54;;;;;;;10.90;7.53;;;14.90;99.90;;;14.68;100.00;101341.56;4135991;28;20038;-67
2021/06/30 03:57:55;;;;;;;11.55;7.03;;;14.90;99.90;;;14.69;100.00;101347.69;4134907;28;20033;-67
2021/06/30 03:59:56;;;;;;;12.40;7.07;;;15.00;99.90;;;14.69;100.00;101327.28;4135853;28;20022;-67
2021/06/30 04:01:58;;;;;;;10.38;6.70;;;15.10;99.90;;;14.79;100.00;101353.63;4135786;28;20029;-67
2021/06/30 04:04:01;;;;;;;11.98;6.15;;;15.10;99.90;;;14.79;100.00;101353.63;4136097;28;20031;-67
2021/06/30 04:06:02;;;;;;;15.52;8.80;;;15.20;99.90;;;14.77;100.00;101351.16;4136063;28;20022;-67
2021/06/30 04:08:12;;;;;;;10.90;7.50;;;15.20;99.90;;;14.76;100.00;101344.19;4136000;28;20038;-67
2021/06/30 04:10:14;;;;;;;15.32;9.90;;;15.20;99.90;;;14.98;100.00;101347.97;4135733;28;20034;-67
2021/06/30 04:12:15;;;;;;;15.48;8.02;;;15.20;99.90;;;15.04;100.00;101346.47;4136011;28;20026;-67
2021/06/30 04:14:16;;;;;;;13.90;10.20;;;15.30;99.90;;;15.16;100.00;101347.75;4135741;28;20022;-67
2021/06/30 04:16:16;;;;;;;15.80;9.38;;;15.40;99.90;;;15.11;100.00;101348.28;4136091;28;20042;-67
2021/06/30 04:18:17;;;;;;;12.57;7.53;;;15.40;99.90;;;15.06;100.00;101358.56;4135879;28;20028;-67
2021/06/30 04:20:18;;;;;;;13.75;8.45;;;15.50;99.90;;;14.99;100.00;101349.63;4150653;28;20026;-67
2021/06/30 04:22:19;;;;;;;17.15;9.15;;;15.40;99.90;;;15.00;100.00;101356.59;4135946;28;20537;-68
2021/06/30 04:24:20;;;;;;;13.88;9.35;;;15.40;99.90;;;15.00;100.00;101361.06;4135844;28;20026;-67
2021/06/30 04:26:21;;;;;;;14.38;9.30;;;15.40;99.90;;;15.19;100.00;101350.06;4134550;28;20073;-67
2021/06/30 04:28:22;;;;;;;14.30;8.02;;;15.60;99.90;;;15.13;100.00;101356.06;4135732;28;20088;-68
2021/06/30 04:30:23;;;;;;;12.43;7.75;;;15.50;99.90;;;15.11;100.00;101358.06;4134443;28;20038;-67
2021/06/30 04:32:24;;;;;;;11.52;8.15;;;15.50;99.90;;;15.12;100.00;101359.72;4134679;28;20026;-67
2021/06/30 04:34:25;;;;;;;12.55;8.57;;;15.50;99.90;;;15.12;100.00;101359.72;4135868;28;20023;-67
2021/06/30 04:36:27;;;;;;;12.82;7.70;;;15.50;99.90;;;15.11;100.00;101356.25;4135537;28;20077;-68
2021/06/30 04:38:28;;;;;;;12.98;7.90;;;15.50;99.90;;;15.05;100.00;101351.63;4135833;28;20022;-68
2021/06/30 04:40:29;;;;;;;15.52;8.02;;;15.50;99.90;;;15.03;100.00;101361.56;4135488;28;20034;-68
2021/06/30 04:42:30;;;;;;;12.55;8.05;;;15.40;99.90;;;14.83;100.00;101333.72;4135461;28;20039;-68
2021/06/30 04:44:31;;;;;;;15.07;8.30;;;15.40;99.90;;;14.77;100.00;101331.75;4135513;28;20038;-68
2021/06/30 04:46:32;;;;;;;13.55;8.60;;;15.30;99.90;;;14.82;100.00;101358.63;4135830;28;20027;-67
2021/06/30 04:48:34;;;;;;;16.20;10.05;;;15.20;99.90;;;14.85;100.00;101342.34;4135764;28;20061;-68
2021/06/30 04:50:35;;;;;;;14.63;8.57;;;15.20;99.90;;;14.85;100.00;101342.34;4134442;28;20486;-67
2021/06/30 04:52:36;;;;;;;14.02;8.63;;;15.20;99.90;;;14.77;100.00;101347.69;4135564;28;20029;-68
2021/06/30 04:54:37;;;;;;;12.60;7.47;;;15.20;99.90;;;14.72;100.00;101353.50;4135524;28;20110;-68
2021/06/30 04:56:42;;;;;;;15.00;8.88;;;15.10;99.90;;;14.72;100.00;101358.81;4135376;28;20058;-67
2021/06/30 04:58:43;;;;;;;13.80;9.18;;;15.10;99.90;;;14.60;100.00;101344.22;4134061;28;20026;-67
2021/06/30 05:00:45;;;;;;;16.23;9.55;;;15.10;99.90;;;14.54;100.00;101346.72;4134175;28;20080;-67
2021/06/30 05:02:46;;;;;;;16.42;10.68;;;15.00;99.90;;;14.54;100.00;101344.91;4134576;28;20486;-68
2021/06/30 05:04:46;;;;;;;14.65;9.20;;;15.00;99.90;;;14.55;100.00;101351.84;4135674;28;20035;-67
2021/06/30 05:06:48;;;;;;;14.32;8.65;;;15.00;99.90;;;14.51;100.00;101355.00;4135578;28;20097;-67
2021/06/30 05:08:49;;;;;;;13.93;9.15;;;15.00;99.90;;;14.60;100.00;101356.66;4135432;28;20405;-67
2021/06/30 05:10:52;;;;;;;13.90;8.15;;;14.90;99.90;;;14.67;100.00;101357.63;4135524;28;20034;-67
2021/06/30 05:12:53;;;;;;;14.95;7.60;;;15.00;99.90;;;14.63;100.00;101346.53;4136532;28;20478;-67
2021/06/30 05:14:54;;;;;;;13.35;7.57;;;15.10;99.90;;;14.78;100.00;101362.63;4137126;28;20037;-67
2021/06/30 05:16:56;;;;;;;13.80;9.23;;;15.10;99.90;;;14.75;100.00;101357.66;4138234;28;20030;-67
2021/06/30 05:18:57;;;;;;;16.75;10.25;;;15.20;99.90;;;14.83;100.00;101349.66;4137209;28;20030;-68
2021/06/30 05:20:58;;;;;;;20.42;15.93;;;15.30;99.90;;;14.95;100.00;101359.78;4138481;28;20030;-67
2021/06/30 05:22:59;;;;;;;22.15;14.52;;;15.30;99.90;;;15.08;100.00;101361.06;4119108;28;20042;-68
2021/06/30 05:25:00;;;;;;;22.48;17.10;;;15.50;99.90;;;15.12;100.00;101355.22;4135807;28;20041;-68
2021/06/30 05:27:01;;;;;;;19.30;13.15;;;15.60;99.90;;;15.29;100.00;101364.81;4120754;28;20066;-68
2021/06/30 05:29:02;;;;;;;18.30;12.43;;;15.80;99.90;;;15.38;100.00;101371.75;4140747;28;20026;-68
2021/06/30 05:31:03;;;;;;;13.52;10.45;;;15.90;99.90;;;15.46;100.00;101369.09;4137908;28;20141;-68
2021/06/30 05:33:04;;;;;;;16.50;11.20;;;16.00;99.90;;;15.56;100.00;101368.88;4136534;28;20081;-68
2021/06/30 05:35:06;;;;;;;18.90;13.73;;;16.00;99.90;;;15.65;100.00;101367.84;4138149;28;20026;-68
2021/06/30 05:37:07;;;;;;;22.90;15.00;;;16.20;99.90;;;15.68;100.00;101378.13;4136967;28;20111;-68
2021/06/30 05:39:08;;;;;;;20.00;13.57;;;16.30;99.90;;;15.80;100.00;101371.44;4138225;28;20033;-68
2021/06/30 05:41:11;;;;;;;15.88;10.60;;;16.40;99.90;;;15.92;100.00;101370.03;4137984;28;20129;-68
2021/06/30 05:43:12;;;;;;;19.42;11.68;;;16.50;99.90;;;16.09;100.00;101378.75;4141325;28;20113;-68
2021/06/30 05:45:16;;;;;;;15.27;10.63;;;16.60;99.90;;;16.27;100.00;101373.16;4137801;28;20414;-68
2021/06/30 05:47:18;;;;;;;15.13;9.63;;;16.70;99.90;;;16.40;100.00;101379.53;4138019;28;20039;-68
2021/06/30 05:49:19;;;;;;;21.40;12.43;;;16.90;99.90;;;16.34;99.02;101379.41;4136719;28;20079;-68
2021/06/30 05:51:19;;;;;;;18.35;11.35;;;17.00;99.90;;;16.29;98.78;101379.13;4138097;28;20081;-68
2021/06/30 05:53:21;;;;;;;14.60;9.73;;;17.00;99.90;;;16.26;99.31;101382.97;4137786;28;20018;-68
2021/06/30 05:55:22;;;;;;;15.70;9.68;;;17.00;99.90;;;16.32;99.32;101386.75;4136699;28;20033;-68
2021/06/30 05:57:23;;;;;;;13.85;9.35;;;17.00;99.90;;;16.25;99.58;101383.13;4137686;28;20030;-68
2021/06/30 05:59:24;;;;;;;15.13;10.00;;;17.00;99.90;;;16.23;99.66;101377.16;4136573;28;20130;-68
2021/06/30 06:01:25;;;;;;;16.48;10.50;;;17.00;99.90;;;16.23;99.59;101383.31;4136603;28;20501;-68
2021/06/30 06:03:26;;;;;;;18.15;11.20;;;17.00;99.90;;;16.29;99.86;101384.44;4136382;28;20038;-68
2021/06/30 06:05:27;;;;;;;17.00;11.32;;;16.90;99.90;;;16.25;99.82;101380.47;4136290;28;20033;-68
2021/06/30 06:07:27;;;;;;;20.70;11.00;;;16.90;99.90;;;16.31;100.00;101391.25;4120419;28;20035;-68
2021/06/30 06:09:28;;;;;;;21.20;12.38;;;16.90;99.90;;;16.32;99.82;101384.91;4137695;28;20037;-68
2021/06/30 06:11:29;;;;;;;15.63;11.45;;;16.90;99.90;;;16.41;99.71;101391.84;4136597;28;20100;-68
2021/06/30 06:13:30;;;;;;;14.65;10.02;;;17.00;99.90;;;16.44;99.75;101391.50;4136969;28;20101;-68
2021/06/30 06:15:31;;;;;;;18.02;10.77;;;17.00;99.90;;;16.39;99.50;101385.03;4137631;28;20026;-68
2021/06/30 06:17:32;;;;;;;14.90;10.15;;;17.00;99.90;;;16.45;98.88;101392.31;4133200;28;20098;-68
2021/06/30 06:19:33;;;;;;;13.25;8.80;;;17.00;99.90;;;16.44;99.23;101393.31;4137368;28;20034;-68
2021/06/30 06:21:35;;;;;;;17.48;10.07;;;17.00;99.90;;;16.48;99.41;101391.97;4137493;28;20030;-68
2021/06/30 06:23:36;;;;;;;14.80;9.77;;;17.10;99.90;;;16.53;99.26;101402.91;4136919;28;20117;-68
2021/06/30 06:25:38;;;;;;;15.80;9.30;;;17.10;99.90;;;16.52;99.24;101398.56;4137118;28;20045;-68
2021/06/30 06:27:46;;;;;;;18.10;9.70;;;17.10;99.90;;;16.41;99.81;101381.19;4137335;28;20030;-68
2021/06/30 06:29:49;;;;;;;19.58;10.23;;;17.10;99.90;;;16.53;99.50;101406.41;4120304;28;20486;-68
2021/06/30 06:31:50;;;;;;;13.82;9.20;;;17.10;99.90;;;16.51;99.84;101400.44;4137475;28;20065;-68
2021/06/30 06:33:51;;;;;;;16.38;10.40;;;17.20;99.90;;;16.52;99.83;101395.91;4137394;28;20113;-68
2021/06/30 06:35:52;;;;;;;17.75;11.88;;;17.20;99.90;;;16.59;99.50;101402.22;4137406;28;20026;-67
2021/06/30 06:37:53;;;;;;;19.55;11.93;;;17.20;99.90;;;16.47;99.58;101385.81;4137128;28;20076;-67
2021/06/30 06:39:54;;;;;;;22.10;14.43;;;17.30;99.90;;;16.49;99.43;101404.25;4136039;28;20027;-68
2021/06/30 06:41:56;;;;;;;18.30;12.75;;;17.30;99.90;;;16.57;99.56;101394.41;4152188;28;20053;-68
2021/06/30 06:43:56;;;;;;;20.85;12.05;;;17.40;99.90;;;16.67;99.16;101398.63;4151891;28;20045;-68
2021/06/30 06:45:57;;;;;;;19.30;12.20;;;17.40;99.90;;;16.68;98.58;101398.47;4135951;28;20019;-68
2021/06/30 06:47:58;;;;;;;16.73;10.82;;;17.50;99.90;;;16.79;98.51;101405.19;4137237;28;20026;-68
2021/06/30 06:50:00;;;;;;;20.52;13.10;;;17.60;99.90;;;16.82;98.55;101405.66;4135856;28;20022;-68
2021/06/30 06:52:01;;;;;;;17.30;11.25;;;17.70;99.90;;;16.92;98.36;101406.25;4137075;28;20032;-68
2021/06/30 06:54:04;;;;;;;20.80;12.27;;;17.70;99.90;;;17.06;97.73;101402.78;4135901;28;20027;-68
2021/06/30 06:56:10;;;;;;;18.65;11.52;;;17.90;99.90;;;17.06;96.77;101393.94;4152106;28;20509;-68
2021/06/30 06:58:11;;;;;;;19.00;13.07;;;18.00;99.90;;;17.21;96.21;101415.28;4137075;28;20023;-68
2021/06/30 07:00:12;;;;;;;18.98;11.85;;;18.00;99.90;;;17.26;96.07;101418.25;4136768;28;20118;-68
2021/06/30 07:02:13;;;;;;;17.77;12.02;;;18.10;99.90;;;17.41;94.12;101414.56;4151779;28;20539;-68
2021/06/30 07:04:14;;;;;;;18.98;11.38;;;18.20;99.90;;;17.50;93.97;101420.66;4135770;28;20034;-68
2021/06/30 07:06:16;;;;;;;18.63;12.32;;;18.20;99.90;;;17.47;93.76;101397.81;4135828;28;20033;-68
2021/06/30 07:08:17;;;;;;;18.17;12.85;;;18.20;99.90;;;17.51;93.84;101409.78;4135765;28;20057;-68
2021/06/30 07:10:18;;;;;;;19.25;12.00;;;18.30;99.90;;;17.50;93.44;101415.31;4136666;28;20118;-68
2021/06/30 07:12:20;;;;;;;17.30;12.32;;;18.40;99.90;;;17.55;93.28;101407.63;4136946;28;20534;-68
2021/06/30 07:14:21;;;;;;;18.83;11.38;;;18.40;99.90;;;17.71;93.31;101409.25;4136729;28;20026;-68
2021/06/30 07:16:22;;;;;;;23.63;13.50;;;18.50;99.90;;;17.82;92.80;101411.44;4136905;28;20031;-68
2021/06/30 07:18:23;;;;;;;21.98;14.20;;;18.70;99.90;;;18.01;90.50;101402.84;4135360;28;20084;-68
2021/06/30 07:20:24;;;;;;;20.48;13.85;;;18.90;99.90;;;17.99;90.04;101413.69;4135663;28;20580;-68
2021/06/30 07:22:25;;;;;;;18.98;12.40;;;19.00;99.90;;;18.02;91.44;101405.31;4135368;28;20081;-68
2021/06/30 07:24:26;;;;;;;17.13;11.93;;;19.10;99.90;;;18.23;88.20;101400.00;4135463;28;20030;-68
2021/06/30 07:26:27;;;;;;;18.08;11.80;;;19.20;99.90;;;18.19;87.66;101400.56;4136635;28;20030;-68
2021/06/30 07:28:28;;;;;;;18.75;11.75;;;19.30;99.90;;;18.23;88.29;101397.34;4135239;28;20115;-68
2021/06/30 07:30:29;;;;;;;17.25;11.52;;;19.30;99.90;;;18.29;89.47;101408.25;4135374;28;20073;-68
2021/06/30 07:32:30;;;;;;;15.32;9.90;;;19.30;99.90;;;18.57;86.52;101409.19;4136585;28;20513;-68
2021/06/30 07:34:31;;;;;;;16.33;11.80;;;19.50;99.90;;;18.24;85.83;101403.50;4136460;28;20033;-68
2021/06/30 07:36:32;;;;;;;17.02;11.60;;;19.50;99.90;;;18.19;87.18;101405.91;4134693;28;20078;-68
2021/06/30 07:38:33;;;;;;;15.00;10.57;;;19.50;99.90;;;18.34;87.49;101403.19;4136495;28;20058;-68
2021/06/30 07:40:34;;;;;;;14.57;9.50;;;19.50;99.90;;;18.48;87.66;101413.00;4119278;28;20038;-68
2021/06/30 07:42:35;;;;;;;11.88;8.27;;;19.50;99.90;;;18.51;86.60;101405.47;4136066;28;20042;-68
2021/06/30 07:44:36;;;;;;;13.93;9.75;;;19.50;99.90;;;18.59;84.85;101413.34;4136078;28;20039;-68
2021/06/30 07:46:37;;;;;;;13.07;9.55;;;19.60;99.90;;;18.38;86.68;101410.63;4136621;28;20061;-68
2021/06/30 07:48:38;;;;;;;15.65;9.13;;;19.60;99.90;;;18.20;84.77;101407.56;4136228;28;20034;-68
2021/06/30 07:50:39;;;;;;;11.45;8.55;;;19.60;99.90;;;18.28;84.56;101410.09;4136182;28;20084;-68
2021/06/30 07:52:40;;;;;;;13.68;8.35;;;19.50;99.90;;;18.36;85.03;101403.84;4134797;28;20034;-68
2021/06/30 07:54:41;;;;;;;9.95;6.93;;;19.50;99.90;;;18.57;84.40;101407.38;4136249;28;20105;-68
2021/06/30 07:56:42;;;;;;;11.95;7.53;;;19.50;99.90;;;18.67;83.93;101402.50;4136188;28;20034;-68
2021/06/30 07:58:43;;;;;;;10.18;6.85;;;19.60;99.90;;;18.57;83.22;101410.03;4135807;28;20037;-68
2021/06/30 08:00:44;;;;;;;9.00;6.68;;;19.60;99.90;;;18.79;81.36;101400.97;4134750;28;20065;-68
2021/06/30 08:02:45;;;;;;;11.60;7.80;;;19.70;99.90;;;18.90;80.24;101409.47;4135979;28;20026;-68
2021/06/30 08:04:46;;;;;;;9.27;6.45;;;19.90;99.90;;;18.95;79.76;101412.38;4135924;28;20034;-68
2021/06/30 08:06:47;;;;;;;8.82;6.30;;;20.00;99.90;;;18.83;82.72;101416.59;4135844;28;20019;-68
2021/06/30 08:08:49;;;;;;;8.57;6.47;;;20.10;99.90;;;19.08;79.91;101409.81;4135693;28;20038;-68
2021/06/30 08:10:50;;;;;;;8.50;5.90;;;20.20;99.90;;;19.13;79.51;101416.22;4134616;28;20125;-68
2021/06/30 08:12:50;;;;;;;9.02;6.65;;;20.30;99.90;;;19.16;78.55;101418.53;4135812;28;20026;-68
2021/06/30 08:14:52;;;;;;;12.00;7.00;;;20.40;99.90;;;19.22;78.45;101412.38;4135371;28;20026;-68